Date,TemperatureHighF,TemperatureAvgF,TemperatureLowF,DewpointHighF,DewpointAvgF,DewpointLowF,HumidityHigh,HumidityAvg,HumidityLow,PressureMaxIn,PressureMinIn,WindSpeedMaxMPH,WindSpeedAvgMPH,GustSpeedMaxMPH,PrecipitationSumIn
2013-1-4,35.0,32.6,29.0,24.0,23.0,22.0,78,67,58,0.00,40.00,20,14,30,0.00
2013-1-5,37.0,31.7,24.0,35.0,28.4,22.0,95,87,70,0.00,40.00,18,10,26,0.00
2013-1-6,37.0,26.8,20.0,35.0,22.1,16.0,95,82,70,0.00,40.00,17,9,27,0.00
2013-1-7,41.0,29.3,18.0,29.0,23.1,17.0,98,79,51,0.00,40.00,21,9,31,0.00
2013-1-8,47.0,37.3,30.0,34.0,28.8,27.0,87,73,48,0.00,40.00,14,9,24,0.00
2013-1-9,50.0,39.7,27.0,35.0,30.4,25.0,95,71,41,0.00,40.00,18,8,34,0.00
2013-1-10,43.0,34.2,26.0,39.0,31.0,25.0,98,90,52,0.00,40.00,10,4,16,0.00
2013-1-11,56.0,50.3,39.0,51.0,47.9,39.0,98,92,79,0.00,40.00,22,11,38,0.00
2013-1-12,54.0,41.9,28.0,48.0,36.2,25.0,94,80,72,0.00,40.00,23,13,32,0.00
2013-1-13,29.0,23.8,20.0,27.0,21.1,14.0,94,90,80,0.00,40.00,11,7,17,0.00
2013-1-14,26.0,20.6,16.0,15.0,10.8,-99.9,93,73,60,0.00,40.00,6,2,11,0.00
2013-1-15,30.0,23.5,14.0,23.0,16.5,13.0,96,76,52,0.00,40.00,6,2,11,0.00
2013-1-16,39.0,27.8,17.0,26.0,19.3,16.0,97,73,48,0.00,40.00,28,11,35,0.00
2013-1-22,15.0,11.4,2.0,2.0,0.1,-3.0,78,60,53,0.00,40.00,14,7,21,0.00
2013-1-23,32.0,20.1,13.0,16.0,8.4,2.0,72,60,49,0.00,40.00,25,9,34,0.00
2013-1-24,24.0,16.7,8.0,11.0,4.5,-1.0,72,58,48,0.00,40.00,22,9,34,0.00
2013-1-25,37.0,27.1,21.0,21.0,15.0,7.0,84,61,46,0.00,40.00,22,9,31,0.00
2013-1-26,32.0,22.8,13.0,15.0,11.5,9.0,84,63,43,0.00,40.00,13,5,23,0.00
2013-1-27,29.0,27.3,26.0,21.0,18.6,14.0,74,69,57,0.00,40.00,8,5,14,0.00
2013-1-28,56.0,46.0,40.0,55.0,45.3,40.0,98,97,97,0.00,40.00,14,4,22,0.00
2013-1-29,64.0,56.8,48.0,61.0,55.6,47.0,97,96,86,0.00,40.00,24,11,40,0.00
2013-1-30,51.0,34.0,20.0,50.0,31.7,14.0,98,91,74,0.00,40.00,21,11,39,0.00
2013-1-31,17.0,12.3,5.0,9.0,3.8,-3.0,76,68,61,0.00,40.00,24,15,39,0.00
2013-2-1,22.0,10.9,2.0,14.0,0.9,-4.0,75,64,53,0.00,40.00,19,12,28,0.00
2013-2-2,28.0,21.9,15.0,25.0,16.4,8.0,91,79,66,0.00,40.00,24,10,29,0.00
2013-2-3,29.0,23.4,17.0,22.0,15.5,11.0,94,73,51,0.00,40.00,19,8,29,0.00
2013-2-4,35.0,28.0,20.0,24.0,20.4,16.0,88,73,61,0.00,40.00,20,7,28,0.00
2013-2-5,38.0,29.5,19.0,30.0,24.5,16.0,92,82,71,0.00,40.00,21,7,26,0.00
2013-2-6,45.0,35.2,25.0,32.0,28.5,23.0,93,77,57,0.00,40.00,15,5,19,0.00
2013-2-7,38.0,36.3,34.0,37.0,34.5,32.0,97,94,81,0.00,40.00,24,6,30,0.00
2013-2-8,34.0,28.7,26.0,33.0,24.6,22.0,97,84,77,0.00,40.00,24,12,32,0.00
2013-2-9,37.0,32.1,28.0,32.0,26.4,23.0,88,79,68,0.00,40.00,14,7,24,0.00
2013-2-10,51.0,43.1,37.0,48.0,39.7,29.0,96,88,55,0.00,40.00,32,14,49,0.00
2013-2-11,45.0,35.2,32.0,31.0,24.4,22.0,72,65,55,0.00,40.00,35,19,52,0.00
2013-2-12,38.0,31.6,27.0,26.0,24.8,23.0,94,76,61,0.00,40.00,13,6,21,0.00
2013-2-13,47.0,35.1,27.0,34.0,29.3,25.0,97,82,49,0.00,40.00,15,5,18,0.00
2013-2-14,41.0,38.7,35.0,35.0,31.5,29.0,92,76,60,0.00,40.00,18,10,28,0.00
2013-2-15,35.0,30.2,23.0,33.0,19.2,11.0,93,66,39,0.00,40.00,23,11,29,0.00
2013-2-16,28.0,21.9,15.0,17.0,12.1,8.0,78,66,50,0.00,40.00,19,10,24,0.00
2013-2-17,37.0,25.3,12.0,22.0,14.0,8.0,83,63,45,0.00,40.00,11,5,23,0.00
2013-2-18,54.0,41.4,26.0,48.0,33.2,20.0,97,73,59,0.00,40.00,28,14,41,0.00
2013-2-19,26.0,18.6,13.0,20.0,10.2,5.0,79,69,57,0.00,40.00,26,17,47,0.00
2013-2-20,23.0,16.1,7.0,15.0,8.8,2.0,82,73,60,0.00,40.00,21,8,28,0.00
2013-2-21,31.0,23.9,15.0,26.0,19.5,12.0,96,83,74,0.00,40.00,18,7,33,0.00
2013-2-22,34.0,29.9,27.0,33.0,27.0,22.0,98,89,72,0.00,40.00,24,10,33,0.00
2013-2-23,27.0,25.9,25.0,22.0,18.4,17.0,83,73,68,0.00,40.00,14,9,24,0.00
2013-2-25,45.0,40.0,36.0,32.0,30.2,29.0,75,68,57,0.00,40.00,13,5,25,0.00
2013-2-26,37.0,33.9,32.0,33.0,30.8,27.0,99,89,68,0.00,40.00,18,10,35,0.00
2013-2-27,34.0,32.7,31.0,33.0,32.0,31.0,99,97,92,0.00,40.00,15,11,23,0.00
2013-2-28,37.0,34.4,33.0,33.0,31.8,28.0,96,90,76,0.00,40.00,19,12,24,0.00
2013-3-1,32.0,28.5,26.0,29.0,23.8,21.0,89,82,74,0.00,40.00,21,13,31,0.00
2013-3-2,30.0,25.9,16.0,22.0,17.0,12.0,83,69,55,0.00,40.00,18,10,21,0.00
2013-3-3,36.0,24.3,12.0,21.0,12.2,9.0,96,64,34,0.00,40.00,8,2,10,0.00
2013-3-4,36.0,30.9,24.0,31.0,24.2,13.0,88,76,63,0.00,40.00,16,7,27,0.00
2013-3-5,34.0,32.1,29.0,34.0,31.1,28.0,98,96,87,0.00,40.00,24,10,35,0.00
2013-3-6,33.0,29.5,26.0,29.0,25.2,23.0,98,84,71,0.00,40.00,25,12,34,0.00
2013-3-7,40.0,31.2,27.0,25.0,23.5,21.0,86,74,49,0.00,40.00,9,4,14,0.00
2013-3-8,42.0,32.3,21.0,33.0,26.4,20.0,95,80,59,0.00,40.00,12,5,20,0.00
2013-3-9,50.0,40.3,35.0,40.0,35.8,31.0,93,84,63,0.00,40.00,11,6,21,0.00
2013-3-12,40.0,33.2,28.0,32.0,26.2,20.0,95,76,55,0.00,40.00,20,14,38,0.00
2013-3-13,25.0,25.0,25.0,20.0,20.0,20.0,81,81,80,0.00,40.00,12,10,23,0.00
2013-3-14,45.0,37.3,28.0,31.0,27.4,22.0,87,69,51,0.00,40.00,12,6,21,0.00
2013-3-15,53.0,41.1,31.0,43.0,35.0,29.0,95,81,47,0.00,40.00,13,4,16,0.00
2013-3-16,42.0,35.8,31.0,40.0,32.2,26.0,97,87,68,0.00,40.00,18,10,24,0.00
2013-3-17,37.0,33.2,29.0,28.0,24.7,21.0,83,71,58,0.00,40.00,14,8,23,0.00
2013-3-18,38.0,32.8,26.0,36.0,28.4,13.0,96,85,58,0.00,40.00,23,10,42,0.00
2013-3-19,38.0,28.3,20.0,17.0,13.2,10.0,68,54,36,0.00,40.00,24,15,36,0.00
2013-10-12,73.0,64.0,57.0,62.0,49.4,-99.9,89,64,31,0.00,40.00,11,5,18,0.00
2013-10-13,67.0,54.6,43.0,44.0,39.1,32.0,90,60,28,0.00,40.00,11,2,16,0.00
2013-10-14,68.0,53.2,40.0,46.0,38.8,31.0,98,64,25,0.00,40.00,10,3,18,0.00
2013-10-15,70.0,59.3,51.0,57.0,47.3,39.0,82,65,55,0.00,40.00,19,7,28,0.00
2013-10-16,53.0,51.5,49.0,45.0,42.8,41.0,79,72,67,0.00,40.00,16,9,25,0.00
2013-10-17,61.0,51.3,43.0,47.0,42.7,35.0,95,75,38,0.00,40.00,17,5,25,0.00
2013-10-18,53.0,47.5,43.0,43.0,39.2,35.0,92,74,52,0.00,40.00,12,6,19,0.00
2013-10-31,63.0,57.6,46.0,63.0,55.9,42.0,100,94,83,0.00,40.00,14,8,27,0.00
2013-11-1,51.0,47.9,44.0,45.0,43.1,40.0,94,84,67,0.00,40.00,15,9,26,0.00
2013-11-2,51.0,43.2,36.0,42.0,34.2,-99.9,93,76,53,0.00,40.00,15,5,24,0.00
2013-11-3,54.0,42.2,30.0,39.0,33.1,29.0,99,73,45,0.00,40.00,9,4,20,0.00
2013-11-4,59.0,51.6,43.0,44.0,39.1,35.0,73,63,48,0.00,40.00,24,9,34,0.00
2013-11-5,57.0,54.2,53.0,52.0,48.9,44.0,95,82,70,0.00,40.00,18,7,27,0.00
2013-11-6,57.0,47.8,37.0,56.0,43.4,28.0,98,85,66,0.00,40.00,17,10,29,0.00
2013-12-22,34.0,29.4,21.0,33.0,26.6,16.0,98,89,79,0.00,40.00,15,9,21,0.00
2013-12-23,20.0,9.3,2.0,16.0,2.2,-6.0,81,72,66,0.00,40.00,18,9,27,0.00
2013-12-24,20.0,8.1,-3.0,11.0,-0.4,-10.0,74,68,54,0.00,40.00,11,5,16,0.00
2013-12-25,29.0,25.8,21.0,25.0,20.0,10.0,87,79,63,0.00,40.00,16,11,21,0.00
2013-12-26,38.0,29.3,18.0,30.0,21.7,13.0,89,73,59,0.00,40.00,16,8,23,0.00
2013-12-27,44.0,36.4,27.0,32.0,29.2,26.0,96,76,55,0.00,40.00,14,7,25,0.00
2013-12-28,52.0,42.5,36.0,33.0,31.2,30.0,81,65,47,0.00,40.00,13,9,19,0.00